Time;durP1;ratioP1;P1;durP2;ratioP2;P2;SDS_P1;SDS_P2;PMS_P1;PMS_P2;Temp;Humidity;BMP_temperature;BMP_pressure;BME280_temperature;BME280_humidity;BME280_pressure;Samples;Min_cycle;Max_cycle;Signal;HPM_P1;HPM_P2
2022/06/30 04:01:12;;;;;;;18.50;15.95;;;15.60;99.90;;;;;;5652898;23;20520;-74
2022/06/30 04:03:37;;;;;;;16.95;13.20;;;15.70;99.90;;;;;;5015538;28;20042;-74
2022/06/30 04:06:03;;;;;;;15.90;13.82;;;15.70;99.90;;;;;;5016833;28;20081;-74
2022/06/30 04:08:29;;;;;;;16.08;13.63;;;15.70;99.90;;;;;;5017108;28;20042;-74
2022/06/30 04:10:54;;;;;;;16.10;14.40;;;15.70;99.90;;;;;;5016708;28;20062;-74
2022/06/30 04:13:20;;;;;;;16.92;13.85;;;15.80;99.90;;;;;;5015595;28;20073;-74
2022/06/30 04:15:45;;;;;;;18.15;15.23;;;15.80;99.90;;;;;;5017509;28;20464;-73
2022/06/30 04:18:12;;;;;;;18.90;14.38;;;15.80;99.90;;;;;;5016803;28;20038;-73
2022/06/30 04:20:37;;;;;;;15.73;13.20;;;15.80;99.90;;;;;;5015038;28;20037;-73
2022/06/30 04:23:03;;;;;;;16.65;13.85;;;15.80;99.90;;;;;;5017050;28;20034;-74
2022/06/30 04:25:28;;;;;;;16.05;13.98;;;15.90;99.90;;;;;;5016868;28;20035;-73
2022/06/30 04:27:57;;;;;;;17.75;13.15;;;15.90;99.90;;;;;;5016474;28;20037;-73
2022/06/30 04:33:08;;;;;;;15.85;12.20;;;15.90;99.90;;;;;;5016808;28;20038;-73
2022/06/30 04:35:35;;;;;;;15.07;13.38;;;15.90;99.90;;;;;;5016712;28;20452;-73
2022/06/30 04:38:01;;;;;;;17.08;14.60;;;15.90;99.90;;;;;;5014961;28;20045;-73
2022/06/30 04:43:11;;;;;;;15.48;13.82;;;16.00;99.90;;;;;;5017001;28;20129;-75
2022/06/30 04:45:37;;;;;;;16.50;14.55;;;16.00;99.90;;;;;;5016563;28;20034;-75
2022/06/30 04:48:03;;;;;;;15.88;14.25;;;15.90;99.90;;;;;;5016417;28;20496;-75
2022/06/30 04:50:29;;;;;;;16.38;14.63;;;16.00;99.90;;;;;;5016041;28;20038;-75
2022/06/30 04:52:54;;;;;;;17.58;14.80;;;16.00;99.90;;;;;;5016767;28;20476;-76
2022/06/30 04:55:20;;;;;;;15.85;14.25;;;16.10;99.90;;;;;;5015473;28;20448;-74
2022/06/30 04:57:46;;;;;;;19.48;15.43;;;16.20;99.90;;;;;;5016557;28;20496;-74
2022/06/30 05:00:12;;;;;;;18.80;14.35;;;16.30;99.90;;;;;;5016376;28;20041;-75
2022/06/30 05:02:37;;;;;;;17.58;14.25;;;16.30;99.90;;;;;;5016386;28;20069;-74
2022/06/30 05:05:03;;;;;;;17.00;14.30;;;16.40;99.90;;;;;;5017900;28;20392;-74
2022/06/30 05:07:29;;;;;;;14.50;12.95;;;16.50;99.90;;;;;;5016290;28;20049;-74
2022/06/30 05:09:55;;;;;;;15.40;13.80;;;16.60;99.90;;;;;;5016836;28;20444;-74
2022/06/30 05:12:20;;;;;;;15.63;13.23;;;16.70;99.90;;;;;;5016779;28;20093;-74
2022/06/30 05:14:46;;;;;;;18.17;14.20;;;16.80;99.90;;;;;;5016475;28;20105;-74
2022/06/30 05:17:11;;;;;;;15.35;13.75;;;16.90;99.90;;;;;;5016297;28;20082;-75
2022/06/30 05:19:38;;;;;;;17.65;13.70;;;17.00;99.90;;;;;;5016763;28;20074;-75
2022/06/30 05:22:04;;;;;;;15.82;12.80;;;17.10;99.90;;;;;;5015374;28;20109;-76
2022/06/30 05:27:13;;;;;;;14.35;12.85;;;17.30;99.90;;;;;;5011955;28;20524;-76
2022/06/30 05:29:39;;;;;;;13.30;11.85;;;17.40;99.90;;;;;;5047757;28;20034;-76
2022/06/30 05:32:05;;;;;;;16.08;12.27;;;17.50;99.90;;;;;;5047411;28;20033;-76
2022/06/30 05:34:31;;;;;;;16.13;12.25;;;17.60;99.90;;;;;;5015876;28;20440;-77
2022/06/30 05:36:56;;;;;;;14.50;11.65;;;17.70;99.90;;;;;;5015710;28;20109;-77
2022/06/30 05:39:22;;;;;;;15.43;11.70;;;17.80;99.90;;;;;;5016101;28;20038;-77
2022/06/30 05:41:47;;;;;;;14.38;12.25;;;18.00;99.90;;;;;;5015600;28;20081;-77
2022/06/30 05:44:13;;;;;;;17.88;11.10;;;18.10;99.90;;;;;;5015042;28;20061;-77
2022/06/30 05:46:38;;;;;;;13.55;11.75;;;18.20;99.90;;;;;;5014762;28;20030;-77
2022/06/30 05:49:06;;;;;;;14.07;10.63;;;18.30;99.90;;;;;;5015512;28;20050;-77
2022/06/30 05:51:32;;;;;;;12.20;10.98;;;18.40;99.90;;;;;;5045023;28;20058;-77
2022/06/30 05:53:58;;;;;;;12.43;10.27;;;18.50;99.90;;;;;;5015186;28;20042;-77
2022/06/30 05:56:23;;;;;;;11.52;10.32;;;18.70;99.90;;;;;;5015295;28;20031;-77
2022/06/30 05:58:49;;;;;;;10.82;9.50;;;18.80;99.90;;;;;;5015092;28;20046;-76
2022/06/30 06:01:14;;;;;;;11.75;9.15;;;18.90;99.90;;;;;;5014024;28;20035;-76
2022/06/30 06:03:40;;;;;;;13.63;9.02;;;19.00;99.90;;;;;;5015465;28;20113;-76
2022/06/30 06:06:05;;;;;;;13.00;9.85;;;19.20;99.90;;;;;;5015596;28;20037;-76
2022/06/30 06:08:31;;;;;;;11.63;9.20;;;19.20;99.90;;;;;;5015211;28;20119;-75
2022/06/30 06:10:56;;;;;;;11.02;8.93;;;19.40;99.90;;;;;;5014845;28;20483;-75
2022/06/30 06:13:22;;;;;;;11.32;8.60;;;19.50;99.90;;;;;;5015006;28;20490;-75
2022/06/30 06:15:47;;;;;;;10.98;8.02;;;19.60;99.90;;;;;;5014638;28;20038;-75
2022/06/30 06:18:13;;;;;;;10.57;7.68;;;19.70;99.90;;;;;;5012262;28;20100;-76
2022/06/30 06:20:38;;;;;;;12.95;7.32;;;19.80;99.90;;;;;;5014207;28;20147;-76
2022/06/30 06:23:04;;;;;;;7.32;6.55;;;20.00;99.90;;;;;;5014415;28;20096;-76
2022/06/30 06:25:29;;;;;;;9.73;6.07;;;20.10;99.90;;;;;;5014853;28;20035;-76
2022/06/30 06:30:39;;;;;;;9.25;6.72;;;20.20;99.90;;;;;;5014699;28;20550;-75
2022/06/30 06:33:05;;;;;;;10.15;6.38;;;20.30;99.90;;;;;;5014449;28;20041;-75
2022/06/30 06:35:31;;;;;;;7.45;5.97;;;20.40;99.90;;;;;;5014658;28;20057;-76
2022/06/30 06:37:56;;;;;;;9.90;6.35;;;20.50;99.90;;;;;;5011657;28;20057;-76
2022/06/30 06:40:22;;;;;;;7.90;6.28;;;20.70;99.90;;;;;;5012370;28;20381;-76
2022/06/30 06:42:47;;;;;;;8.95;6.60;;;20.80;99.90;;;;;;5012587;28;20088;-76
2022/06/30 06:45:13;;;;;;;9.60;6.57;;;20.90;99.90;;;;;;5014672;28;20546;-75
2022/06/30 06:47:39;;;;;;;10.93;6.53;;;21.00;99.90;;;;;;5013976;28;20175;-76
2022/06/30 06:50:06;;;;;;;11.63;5.65;;;21.20;99.90;;;;;;5046617;28;20030;-76
2022/06/30 06:52:32;;;;;;;6.95;6.25;;;21.30;99.90;;;;;;5046032;28;20031;-76
2022/06/30 06:54:58;;;;;;;7.55;5.97;;;21.50;99.90;;;;;;5012062;28;20046;-76
2022/06/30 06:57:23;;;;;;;7.38;5.82;;;21.60;99.90;;;;;;5013088;28;20034;-75
2022/06/30 06:59:49;;;;;;;6.60;5.50;;;21.80;99.90;;;;;;5012754;28;20950;-76
2022/06/30 07:02:15;;;;;;;9.05;5.95;;;22.00;99.90;;;;;;5014178;28;20143;-75
2022/06/30 07:04:40;;;;;;;9.13;6.38;;;22.10;99.90;;;;;;5013425;28;20097;-75
2022/06/30 07:07:06;;;;;;;6.45;5.85;;;22.30;99.90;;;;;;5011737;28;20039;-76
2022/06/30 07:09:31;;;;;;;8.60;6.07;;;22.40;99.90;;;;;;5013755;28;20045;-75
2022/06/30 07:11:57;;;;;;;7.57;5.95;;;22.60;99.90;;;;;;5013689;28;20120;-76
2022/06/30 07:14:22;;;;;;;6.80;5.50;;;22.70;99.90;;;;;;5013991;28;20030;-76
2022/06/30 07:16:48;;;;;;;8.68;6.45;;;22.80;99.90;;;;;;4999320;28;20528;-76
2022/06/30 07:19:13;;;;;;;6.78;5.75;;;23.00;99.90;;;;;;5007828;28;20043;-75
2022/06/30 07:21:39;;;;;;;8.82;5.82;;;23.20;99.90;;;;;;5013249;28;20058;-76
2022/06/30 07:24:05;;;;;;;7.15;5.15;;;23.50;99.90;;;;;;5045613;28;20373;-75
2022/06/30 07:26:30;;;;;;;6.85;5.13;;;23.70;99.90;;;;;;5013240;28;20113;-75
2022/06/30 07:28:56;;;;;;;7.38;4.80;;;23.90;99.90;;;;;;5013739;28;20045;-76
2022/06/30 07:31:23;;;;;;;9.48;4.75;;;24.10;99.90;;;;;;5002214;28;20061;-75
2022/06/30 07:33:48;;;;;;;7.95;4.70;;;24.20;99.90;;;;;;5013786;28;20031;-76
2022/06/30 07:36:14;;;;;;;7.65;4.50;;;24.30;99.90;;;;;;5013293;28;20035;-74
2022/06/30 07:38:40;;;;;;;7.57;4.50;;;24.50;99.90;;;;;;5040295;28;20435;-75
2022/06/30 07:41:06;;;;;;;5.25;4.47;;;24.90;99.90;;;;;;5013367;28;20048;-75
2022/06/30 07:43:31;;;;;;;6.22;4.63;;;25.00;99.90;;;;;;5013744;28;20500;-75
2022/06/30 07:45:57;;;;;;;7.20;4.97;;;25.20;99.90;;;;;;5013645;28;20044;-75
2022/06/30 07:48:22;;;;;;;7.03;4.45;;;25.40;99.90;;;;;;5013549;28;20079;-75
2022/06/30 07:50:48;;;;;;;6.45;4.40;;;25.40;99.90;;;;;;5013245;28;20031;-75
2022/06/30 07:53:14;;;;;;;7.03;4.38;;;25.50;99.90;;;;;;5013523;28;20038;-75
2022/06/30 07:55:39;;;;;;;6.22;4.32;;;25.90;99.90;;;;;;5013285;28;20093;-75
2022/06/30 07:58:05;;;;;;;5.90;4.03;;;26.10;99.90;;;;;;5012759;28;20388;-75
2022/06/30 08:00:30;;;;;;;6.50;4.50;;;26.40;99.90;;;;;;5009878;28;20050;-75
2022/06/30 08:02:56;;;;;;;7.85;4.28;;;26.30;99.90;;;;;;5010160;28;20440;-74
2022/06/30 08:05:21;;;;;;;5.03;3.95;;;26.60;99.90;;;;;;5012405;28;20535;-74
2022/06/30 08:07:47;;;;;;;6.28;4.28;;;26.50;99.30;;;;;;5017358;28;20396;-74
2022/06/30 08:10:12;;;;;;;5.60;4.05;;;26.70;99.60;;;;;;5026430;28;20039;-74
2022/06/30 08:12:38;;;;;;;5.97;4.10;;;26.70;98.40;;;;;;5022978;28;20037;-74
2022/06/30 08:15:04;;;;;;;6.20;4.10;;;26.80;98.90;;;;;;5027541;28;20034;-74
2022/06/30 08:17:31;;;;;;;6.00;4.32;;;27.00;97.90;;;;;;5029348;28;20038;-74
2022/06/30 08:19:58;;;;;;;5.82;3.47;;;27.20;95.80;;;;;;5017642;28;20109;-74
2022/06/30 08:22:24;;;;;;;4.28;3.30;;;27.30;96.70;;;;;;5010115;28;20042;-74
2022/06/30 08:24:50;;;;;;;5.15;3.38;;;27.50;97.20;;;;;;5024532;28;20034;-74
2022/06/30 08:27:15;;;;;;;5.38;3.30;;;27.60;95.50;;;;;;5030043;28;20041;-74
2022/06/30 08:29:41;;;;;;;3.88;3.28;;;27.60;93.70;;;;;;5019922;28;20507;-74
2022/06/30 08:32:06;;;;;;;5.60;3.40;;;27.70;92.80;;;;;;5014785;28;20049;-74
2022/06/30 08:34:32;;;;;;;4.05;3.35;;;28.00;94.80;;;;;;5012713;28;20769;-74
2022/06/30 08:36:58;;;;;;;4.68;3.38;;;28.30;94.80;;;;;;5013987;28;20042;-75
2022/06/30 08:42:09;;;;;;;4.38;3.40;;;28.40;92.90;;;;;;5020094;28;20074;-75
2022/06/30 08:44:37;;;;;;;7.93;3.65;;;28.50;92.60;;;;;;5022118;28;20033;-74
2022/06/30 08:47:04;;;;;;;7.28;3.72;;;28.70;92.70;;;;;;5014556;28;20035;-74
2022/06/30 08:49:30;;;;;;;5.63;3.53;;;28.90;91.50;;;;;;5031390;28;20558;-75
2022/06/30 08:51:58;;;;;;;5.70;3.88;;;29.10;91.40;;;;;;5016717;28;20045;-74
2022/06/30 08:54:25;;;;;;;5.32;3.75;;;29.00;91.50;;;;;;5018879;28;20049;-74
2022/06/30 08:56:50;;;;;;;4.97;4.30;;;29.20;90.30;;;;;;5018774;28;20121;-75
2022/06/30 08:59:17;;;;;;;4.03;3.30;;;29.10;91.30;;;;;;5023066;28;20042;-75
2022/06/30 09:01:43;;;;;;;4.60;3.30;;;29.10;90.00;;;;;;5014659;28;20034;-75
2022/06/30 09:04:12;;;;;;;7.45;3.75;;;29.10;90.20;;;;;;5011667;28;20046;-75
2022/06/30 09:06:38;;;;;;;3.92;3.38;;;29.30;87.70;;;;;;5021066;28;20122;-75
2022/06/30 09:09:05;;;;;;;7.55;3.63;;;29.40;87.20;;;;;;5028224;28;20509;-74
2022/06/30 09:11:51;;;;;;;8.23;3.67;;;29.70;90.00;;;;;;5018178;28;20101;-75
2022/06/30 09:14:37;;;;;;;5.53;3.13;;;29.80;85.00;;;;;;5049718;28;20184;-75
2022/06/30 09:17:05;;;;;;;4.63;3.42;;;30.20;83.40;;;;;;5022827;28;20040;-74
2022/06/30 09:19:32;;;;;;;5.80;3.50;;;30.20;84.20;;;;;;5029166;28;20117;-74
2022/06/30 09:22:09;;;;;;;4.57;3.17;;;29.90;83.20;;;;;;5018978;28;20407;-74
2022/06/30 09:24:35;;;;;;;6.03;3.10;;;29.80;83.70;;;;;;5003830;28;20030;-74
2022/06/30 09:27:08;;;;;;;7.60;3.38;;;29.90;83.60;;;;;;5025319;28;20092;-74
2022/06/30 09:29:34;;;;;;;4.88;3.50;;;30.10;82.10;;;;;;5023445;28;20053;-74
2022/06/30 09:31:59;;;;;;;4.55;3.05;;;30.20;84.30;;;;;;5002132;28;20058;-74
2022/06/30 09:34:25;;;;;;;6.15;3.17;;;30.00;80.70;;;;;;5017984;28;20038;-74
2022/06/30 09:36:52;;;;;;;3.80;3.20;;;30.30;80.80;;;;;;5007201;28;20042;-75
2022/06/30 09:39:19;;;;;;;8.52;3.38;;;30.30;81.50;;;;;;5013881;28;20518;-75
2022/06/30 09:41:46;;;;;;;4.68;3.15;;;30.40;79.20;;;;;;5024474;28;20038;-75
2022/06/30 09:44:25;;;;;;;4.38;3.22;;;30.30;80.50;;;;;;5014633;28;20246;-75
2022/06/30 09:47:02;;;;;;;4.68;2.75;;;30.60;80.70;;;;;;5018022;28;20030;-75
2022/06/30 09:49:32;;;;;;;6.60;3.25;;;30.80;77.50;;;;;;5015304;28;20523;-75
2022/06/30 09:51:59;;;;;;;3.35;3.00;;;31.20;79.80;;;;;;5029993;28;20042;-75
2022/06/30 09:54:26;;;;;;;7.43;3.25;;;31.60;81.20;;;;;;5029352;28;20531;-74
2022/06/30 09:57:02;;;;;;;3.95;3.22;;;32.00;75.40;;;;;;5018531;28;20654;-75
2022/06/30 09:59:28;;;;;;;4.15;3.50;;;31.90;75.00;;;;;;5024752;28;20039;-75
2022/06/30 10:01:55;;;;;;;7.35;3.40;;;31.80;75.30;;;;;;5013157;28;20039;-77
2022/06/30 10:04:21;;;;;;;5.93;3.25;;;32.20;72.50;;;;;;5030205;28;20096;-74
2022/06/30 10:06:47;;;;;;;6.50;3.20;;;32.80;71.00;;;;;;5014796;28;20458;-75
2022/06/30 10:09:17;;;;;;;5.60;3.33;;;33.00;73.70;;;;;;5014344;28;20491;-76
2022/06/30 10:11:44;;;;;;;4.50;3.20;;;33.20;70.10;;;;;;5021160;28;20062;-76
2022/06/30 10:14:11;;;;;;;5.28;3.13;;;33.40;69.90;;;;;;5017720;28;20101;-77
2022/06/30 10:16:41;;;;;;;5.35;3.50;;;33.00;69.60;;;;;;5024630;28;20534;-76
2022/06/30 10:19:09;;;;;;;4.70;3.28;;;32.70;69.10;;;;;;5026644;28;20049;-76
2022/06/30 10:21:37;;;;;;;6.30;2.95;;;32.60;68.50;;;;;;5015376;28;20046;-74
2022/06/30 10:24:07;;;;;;;5.80;3.20;;;32.70;70.00;;;;;;5015660;28;20038;-74
2022/06/30 10:29:18;;;;;;;5.75;3.30;;;32.50;70.30;;;;;;5014822;28;20077;-75
2022/06/30 10:31:54;;;;;;;5.00;3.30;;;32.30;71.80;;;;;;5020184;28;20416;-74
2022/06/30 10:34:24;;;;;;;5.75;3.40;;;32.00;73.90;;;;;;5017797;28;20042;-74
2022/06/30 10:37:07;;;;;;;7.00;3.60;;;32.10;73.10;;;;;;5028561;28;20061;-74
2022/06/30 10:39:35;;;;;;;3.90;3.35;;;32.50;69.50;;;;;;5022892;28;20046;-74
2022/06/30 10:42:01;;;;;;;5.38;3.63;;;32.10;74.20;;;;;;5018664;28;20045;-74
2022/06/30 10:44:28;;;;;;;3.95;3.15;;;31.90;71.40;;;;;;5020496;28;20054;-74
2022/06/30 10:46:55;;;;;;;3.80;3.38;;;32.20;71.60;;;;;;5020230;28;20040;-74
2022/06/30 10:49:22;;;;;;;5.00;3.65;;;32.40;71.30;;;;;;5011594;28;20038;-74
2022/06/30 10:51:48;;;;;;;6.10;3.53;;;32.60;68.10;;;;;;5017157;28;20038;-74
2022/06/30 10:54:33;;;;;;;4.22;3.20;;;32.90;67.40;;;;;;5015023;28;20034;-73
2022/06/30 10:57:00;;;;;;;5.38;3.40;;;33.10;67.40;;;;;;5014663;28;20042;-78
2022/06/30 10:59:36;;;;;;;3.60;3.25;;;32.70;68.20;;;;;;5025278;28;20403;-76
2022/06/30 11:02:10;;;;;;;5.65;3.33;;;32.50;67.20;;;;;;5018604;28;20031;-75
2022/06/30 11:04:47;;;;;;;6.43;3.47;;;32.80;67.20;;;;;;5014010;28;20042;-77
2022/06/30 11:07:21;;;;;;;3.40;3.10;;;32.80;69.00;;;;;;5014605;28;20113;-76
2022/06/30 11:09:47;;;;;;;4.75;3.08;;;33.30;67.00;;;;;;5014504;28;20495;-74
2022/06/30 11:12:15;;;;;;;3.63;3.30;;;33.70;65.70;;;;;;5014239;28;20058;-74
2022/06/30 11:14:48;;;;;;;5.88;3.05;;;33.50;65.30;;;;;;5014418;28;20043;-74
2022/06/30 11:17:14;;;;;;;4.15;3.10;;;34.00;64.30;;;;;;5013867;28;20516;-74
2022/06/30 11:19:40;;;;;;;4.45;3.13;;;33.90;63.50;;;;;;5046174;28;20125;-74
2022/06/30 11:22:07;;;;;;;4.53;3.05;;;34.10;65.90;;;;;;5013470;28;20030;-74
2022/06/30 11:24:37;;;;;;;3.80;3.45;;;34.20;60.80;;;;;;5008331;28;20500;-74
2022/06/30 11:27:24;;;;;;;3.47;3.17;;;33.70;63.20;;;;;;5013618;28;20179;-74
2022/06/30 11:30:05;;;;;;;3.63;3.30;;;33.70;62.50;;;;;;5014304;28;20045;-74
2022/06/30 11:32:30;;;;;;;4.38;3.15;;;33.80;62.50;;;;;;5013945;28;20053;-74
2022/06/30 11:34:57;;;;;;;4.32;3.10;;;33.10;64.70;;;;;;5005902;28;20044;-74
2022/06/30 11:37:27;;;;;;;5.40;3.55;;;32.90;64.10;;;;;;5014227;28;20034;-75
2022/06/30 11:40:00;;;;;;;7.00;3.55;;;32.50;65.10;;;;;;5013529;28;20027;-78
2022/06/30 11:42:26;;;;;;;3.63;3.20;;;32.70;65.00;;;;;;5013850;28;20542;-75
2022/06/30 11:44:52;;;;;;;5.68;3.47;;;33.30;63.20;;;;;;5017891;28;20038;-75
2022/06/30 11:47:20;;;;;;;6.85;3.55;;;33.30;63.40;;;;;;5016696;28;20046;-74
2022/06/30 11:49:54;;;;;;;6.00;3.40;;;32.90;65.40;;;;;;5017403;28;20460;-74
2022/06/30 11:52:21;;;;;;;4.88;3.55;;;32.30;64.80;;;;;;5018596;28;20052;-75
2022/06/30 11:55:09;;;;;;;5.43;3.50;;;31.60;66.20;;;;;;5017491;28;20092;-75
2022/06/30 11:57:38;;;;;;;6.25;3.47;;;31.40;68.00;;;;;;5009770;28;20034;-74
2022/06/30 12:00:11;;;;;;;4.40;3.60;;;31.30;68.40;;;;;;5017052;28;20022;-74
2022/06/30 12:02:38;;;;;;;4.97;3.35;;;31.00;70.40;;;;;;5019731;28;20037;-74
2022/06/30 12:05:09;;;;;;;4.13;3.25;;;31.20;70.70;;;;;;5016770;28;20444;-74
2022/06/30 12:07:35;;;;;;;5.85;3.80;;;31.80;66.90;;;;;;4997487;28;20046;-74
2022/06/30 12:10:00;;;;;;;4.00;3.08;;;33.10;69.50;;;;;;5006131;28;20038;-74
2022/06/30 12:12:28;;;;;;;5.72;3.30;;;33.70;63.60;;;;;;5017129;28;20038;-74
2022/06/30 12:14:56;;;;;;;3.65;3.30;;;34.50;62.20;;;;;;5017583;28;20096;-74
2022/06/30 12:17:22;;;;;;;6.07;3.50;;;34.50;60.80;;;;;;5012746;28;20049;-75
2022/06/30 12:19:50;;;;;;;4.85;3.58;;;34.60;61.60;;;;;;5014153;28;20037;-75
2022/06/30 12:22:16;;;;;;;4.90;3.30;;;34.60;63.70;;;;;;5028932;28;20132;-74
2022/06/30 12:24:45;;;;;;;3.53;3.13;;;34.50;60.50;;;;;;5037048;28;20030;-74
2022/06/30 12:27:27;;;;;;;3.65;3.35;;;34.60;61.00;;;;;;5023283;28;20089;-74
2022/06/30 12:30:01;;;;;;;4.75;3.15;;;34.30;59.80;;;;;;5016269;28;20042;-74
2022/06/30 12:32:28;;;;;;;5.68;3.78;;;34.50;60.70;;;;;;5015289;28;20038;-74
2022/06/30 12:34:57;;;;;;;4.28;3.20;;;34.90;58.20;;;;;;5014100;28;20039;-74
2022/06/30 12:37:31;;;;;;;4.47;3.17;;;35.10;56.60;;;;;;5011438;28;20534;-74
2022/06/30 12:39:58;;;;;;;3.50;3.08;;;34.60;58.10;;;;;;5011948;28;20108;-74
2022/06/30 12:42:26;;;;;;;3.65;3.10;;;34.40;57.60;;;;;;5009518;28;20034;-75
2022/06/30 12:44:52;;;;;;;3.97;3.63;;;33.70;64.20;;;;;;5018879;28;20093;-75
2022/06/30 12:47:18;;;;;;;5.25;3.00;;;33.30;61.50;;;;;;5016488;28;20073;-75
2022/06/30 12:49:44;;;;;;;3.28;2.90;;;33.80;61.70;;;;;;5014730;28;20125;-74
2022/06/30 12:52:20;;;;;;;4.55;3.30;;;34.20;65.70;;;;;;5015431;28;20117;-77
2022/06/30 12:54:57;;;;;;;3.63;3.17;;;34.30;60.00;;;;;;5016150;28;20098;-75
2022/06/30 12:57:24;;;;;;;4.32;3.33;;;35.00;58.80;;;;;;5016745;28;20093;-76
2022/06/30 12:59:56;;;;;;;4.88;3.40;;;35.80;56.80;;;;;;5017009;28;20088;-75
2022/06/30 13:02:34;;;;;;;4.43;2.97;;;36.10;60.10;;;;;;5016126;28;20047;-75
2022/06/30 13:04:59;;;;;;;5.35;3.47;;;35.70;56.80;;;;;;5008680;28;20035;-74
2022/06/30 13:07:25;;;;;;;7.32;3.53;;;35.00;56.20;;;;;;5014553;28;20046;-74
2022/06/30 13:09:50;;;;;;;4.30;3.30;;;34.80;59.40;;;;;;5013282;28;20041;-75
2022/06/30 13:12:17;;;;;;;3.70;3.35;;;35.20;60.20;;;;;;5016182;28;20393;-75
2022/06/30 13:14:43;;;;;;;7.70;3.42;;;35.80;57.00;;;;;;5016119;28;20050;-75
2022/06/30 13:17:10;;;;;;;4.35;2.90;;;36.20;56.90;;;;;;5016020;28;20416;-74
2022/06/30 13:19:37;;;;;;;7.65;3.22;;;36.80;59.80;;;;;;5016470;28;20030;-74
2022/06/30 13:22:03;;;;;;;5.25;3.25;;;36.80;55.10;;;;;;5015738;28;20038;-75
2022/06/30 13:24:28;;;;;;;4.43;3.20;;;36.70;54.70;;;;;;5013861;28;20128;-75
2022/06/30 13:26:55;;;;;;;3.42;2.85;;;36.90;57.50;;;;;;5006026;28;20034;-75
2022/06/30 13:29:23;;;;;;;7.53;3.40;;;37.00;56.20;;;;;;5011231;28;20326;-75
2022/06/30 13:31:50;;;;;;;5.32;3.20;;;37.40;54.80;;;;;;5016346;28;20073;-75
2022/06/30 13:34:16;;;;;;;6.13;3.30;;;38.10;54.00;;;;;;5037147;28;20045;-77
2022/06/30 13:36:42;;;;;;;5.47;3.10;;;38.30;51.50;;;;;;5016456;28;20034;-77
2022/06/30 13:39:09;;;;;;;3.10;2.80;;;38.50;51.00;;;;;;5016473;28;20530;-76
2022/06/30 13:41:35;;;;;;;5.35;3.05;;;39.00;50.00;;;;;;5014886;28;20042;-76
2022/06/30 13:44:02;;;;;;;5.63;3.17;;;40.60;50.90;;;;;;5047048;28;20042;-77
2022/06/30 13:46:29;;;;;;;4.57;3.03;;;40.50;48.60;;;;;;5015979;28;20486;-76
2022/06/30 13:48:56;;;;;;;4.57;3.15;;;39.70;46.60;;;;;;5015560;28;20038;-76
2022/06/30 13:51:21;;;;;;;3.88;3.03;;;39.40;53.10;;;;;;5015396;28;20125;-76
2022/06/30 13:53:47;;;;;;;7.30;3.00;;;40.10;52.80;;;;;;5015536;28;20042;-76
2022/06/30 13:56:13;;;;;;;3.75;2.88;;;40.50;47.40;;;;;;5038973;28;20132;-76
2022/06/30 13:58:38;;;;;;;5.07;3.30;;;41.20;48.10;;;;;;5015660;28;20046;-77
2022/06/30 14:01:05;;;;;;;6.35;3.40;;;41.10;49.40;;;;;;5014719;28;20038;-77
2022/06/30 14:03:31;;;;;;;5.53;2.90;;;41.40;47.20;;;;;;5015408;28;20046;-80
2022/06/30 14:05:57;;;;;;;3.70;2.90;;;41.40;45.10;;;;;;5015071;28;20552;-78
2022/06/30 14:08:23;;;;;;;3.55;2.97;;;40.80;45.00;;;;;;5015846;28;20031;-77
2022/06/30 14:10:48;;;;;;;4.45;3.20;;;41.30;50.80;;;;;;5014982;28;20046;-77
2022/06/30 14:13:14;;;;;;;5.05;3.00;;;40.80;50.00;;;;;;5015500;28;20066;-76
2022/06/30 14:15:40;;;;;;;4.05;3.10;;;41.00;44.40;;;;;;5015114;28;20038;-77
2022/06/30 14:18:05;;;;;;;6.03;3.03;;;42.10;44.60;;;;;;5015533;28;20089;-75
2022/06/30 14:20:32;;;;;;;3.75;3.20;;;41.60;50.50;;;;;;5014931;28;20141;-80
2022/06/30 14:22:58;;;;;;;3.33;3.00;;;40.70;46.70;;;;;;5046935;28;20508;-75
2022/06/30 14:25:25;;;;;;;4.60;2.95;;;40.30;50.50;;;;;;5046918;28;20128;-75
2022/06/30 14:27:51;;;;;;;5.53;2.97;;;40.00;46.20;;;;;;5014849;28;20034;-75
2022/06/30 14:30:17;;;;;;;4.38;3.30;;;39.30;46.50;;;;;;5015223;28;20099;-75
2022/06/30 14:32:42;;;;;;;6.40;3.00;;;39.20;48.00;;;;;;5014357;28;20128;-75
2022/06/30 14:35:10;;;;;;;4.45;3.30;;;38.90;52.70;;;;;;5014434;28;20592;-75
2022/06/30 14:37:37;;;;;;;3.85;3.40;;;38.20;49.90;;;;;;5046197;28;20038;-74
2022/06/30 14:40:03;;;;;;;5.85;3.28;;;37.40;49.70;;;;;;5046302;28;20038;-75
2022/06/30 14:42:44;;;;;;;4.60;3.15;;;36.80;53.40;;;;;;5013410;28;20508;-78
2022/06/30 14:45:14;;;;;;;5.95;3.10;;;36.10;53.20;;;;;;5013846;28;20031;-76
2022/06/30 14:47:43;;;;;;;4.30;2.85;;;35.40;53.40;;;;;;5014409;28;20145;-74
2022/06/30 14:50:09;;;;;;;4.18;2.95;;;35.10;56.10;;;;;;5014679;28;20042;-74
2022/06/30 14:52:37;;;;;;;5.15;3.30;;;34.90;59.10;;;;;;5014643;28;20822;-73
2022/06/30 14:55:06;;;;;;;3.38;3.00;;;34.40;53.60;;;;;;5014549;28;20058;-74
2022/06/30 14:57:32;;;;;;;4.82;3.40;;;34.10;56.10;;;;;;5014410;28;20034;-76
2022/06/30 14:59:59;;;;;;;4.88;3.60;;;33.60;56.90;;;;;;5006666;28;20035;-74
2022/06/30 15:02:25;;;;;;;4.10;2.90;;;33.30;61.70;;;;;;5008621;28;20129;-74
2022/06/30 15:04:50;;;;;;;9.00;2.92;;;33.10;55.70;;;;;;5013617;28;20110;-74
2022/06/30 15:07:16;;;;;;;4.03;3.00;;;32.90;59.10;;;;;;5014547;28;20034;-75
2022/06/30 15:09:41;;;;;;;7.20;3.15;;;32.50;59.80;;;;;;5014140;28;20045;-75
2022/06/30 15:12:07;;;;;;;3.72;2.78;;;32.40;61.20;;;;;;5014580;28;20034;-76
2022/06/30 15:14:33;;;;;;;4.38;2.80;;;32.00;62.20;;;;;;5012774;28;20035;-75
2022/06/30 15:16:58;;;;;;;3.75;3.00;;;31.70;63.50;;;;;;5015890;28;20030;-75
2022/06/30 15:19:25;;;;;;;5.45;2.90;;;31.50;57.60;;;;;;5017431;28;20199;-75
2022/06/30 15:24:36;;;;;;;4.05;3.00;;;30.90;61.40;;;;;;5003461;28;20035;-75
2022/06/30 15:27:01;;;;;;;3.63;3.03;;;30.60;64.50;;;;;;5018002;28;20539;-75
2022/06/30 15:29:27;;;;;;;4.35;3.08;;;30.40;64.90;;;;;;5017705;28;20511;-73
2022/06/30 15:31:55;;;;;;;4.72;2.95;;;30.20;66.60;;;;;;5049384;28;20046;-74
2022/06/30 15:34:21;;;;;;;3.78;3.10;;;30.00;68.40;;;;;;5017251;28;20844;-74
2022/06/30 15:36:47;;;;;;;6.35;2.70;;;29.70;70.30;;;;;;5017360;28;20034;-74
2022/06/30 15:39:12;;;;;;;3.20;2.90;;;29.50;70.40;;;;;;5017386;28;20046;-74
2022/06/30 15:41:38;;;;;;;4.35;3.28;;;29.30;72.10;;;;;;5017114;28;20035;-74
2022/06/30 15:44:04;;;;;;;4.13;3.10;;;29.10;72.30;;;;;;5035648;28;20038;-74
2022/06/30 15:46:35;;;;;;;5.93;3.28;;;28.90;73.80;;;;;;5017380;28;20037;-74
2022/06/30 15:49:01;;;;;;;5.20;3.50;;;28.60;74.20;;;;;;5017361;28;20471;-74
2022/06/30 15:51:26;;;;;;;5.13;3.10;;;28.50;73.90;;;;;;5017411;28;20034;-74
2022/06/30 15:53:52;;;;;;;5.25;3.38;;;28.40;73.80;;;;;;5016884;28;20439;-74
2022/06/30 15:56:18;;;;;;;5.78;3.53;;;28.10;72.50;;;;;;5017200;28;20030;-74
2022/06/30 15:58:43;;;;;;;4.65;3.20;;;28.10;74.80;;;;;;5016879;28;20524;-74
2022/06/30 16:01:11;;;;;;;6.03;3.33;;;27.90;79.00;;;;;;5016946;28;20065;-74
2022/06/30 16:03:37;;;;;;;8.10;3.80;;;27.60;79.70;;;;;;5017125;28;20034;-74
2022/06/30 16:06:03;;;;;;;8.70;3.67;;;27.20;87.30;;;;;;5017059;28;20035;-74
2022/06/30 16:08:29;;;;;;;7.57;4.40;;;26.70;91.40;;;;;;5016885;28;20040;-74
2022/06/30 16:10:55;;;;;;;7.25;4.60;;;26.10;93.70;;;;;;5016533;28;20565;-74
2022/06/30 16:13:21;;;;;;;11.32;4.80;;;25.30;99.00;;;;;;5016964;28;20046;-74
2022/06/30 16:15:46;;;;;;;8.32;5.57;;;24.40;99.90;;;;;;5017157;28;20061;-74
2022/06/30 16:18:13;;;;;;;7.38;5.32;;;23.70;99.90;;;;;;5016356;28;20046;-74
2022/06/30 16:20:39;;;;;;;6.95;5.63;;;23.30;99.90;;;;;;5016821;28;20041;-75
2022/06/30 16:23:05;;;;;;;10.80;6.22;;;23.00;99.90;;;;;;5016988;28;20035;-73
2022/06/30 16:25:33;;;;;;;10.55;6.88;;;22.80;99.90;;;;;;5016607;28;20401;-75
2022/06/30 16:27:59;;;;;;;12.25;6.80;;;22.70;99.90;;;;;;5015802;28;20053;-75
2022/06/30 16:30:25;;;;;;;12.02;6.95;;;22.50;99.90;;;;;;5016373;28;20034;-76
2022/06/30 16:32:51;;;;;;;12.85;7.32;;;22.50;99.90;;;;;;5048378;28;20117;-75
2022/06/30 16:35:16;;;;;;;11.90;7.38;;;22.50;99.90;;;;;;5048376;28;20150;-77
2022/06/30 16:37:42;;;;;;;11.38;7.20;;;22.60;99.90;;;;;;5016805;28;20195;-75
2022/06/30 16:40:09;;;;;;;9.45;7.57;;;22.70;99.90;;;;;;5016817;28;20044;-76
2022/06/30 16:42:35;;;;;;;9.75;7.63;;;22.80;99.90;;;;;;5017134;28;20041;-80
2022/06/30 16:45:00;;;;;;;12.95;7.55;;;22.90;99.90;;;;;;5017324;28;20085;-74
2022/06/30 16:47:26;;;;;;;11.88;8.30;;;23.00;99.90;;;;;;5016733;28;20829;-74
2022/06/30 16:49:53;;;;;;;13.10;7.88;;;23.00;99.90;;;;;;5048509;28;20070;-74
2022/06/30 16:52:19;;;;;;;11.02;8.25;;;23.00;99.90;;;;;;5016652;28;20085;-74
2022/06/30 16:54:45;;;;;;;10.07;7.18;;;23.10;99.90;;;;;;5048242;28;20026;-76
2022/06/30 16:57:11;;;;;;;8.90;7.28;;;23.20;99.90;;;;;;5016280;28;20093;-75
2022/06/30 16:59:37;;;;;;;11.55;6.57;;;23.30;99.90;;;;;;5016651;28;20042;-74
2022/06/30 17:02:04;;;;;;;10.63;6.75;;;23.30;99.90;;;;;;5015344;28;20081;-74